sensor_id;sensor_type;location;lat;lon;timestamp;pressure;altitude;pressure_sealevel;temperature;humidity
14067;BME280;7108;42.684;23.350;2023-05-20T00:02:07;95677.47;;;14.07;100.00
14067;BME280;7108;42.684;23.350;2023-05-20T00:04:33;95664.97;;;13.96;100.00
14067;BME280;7108;42.684;23.350;2023-05-20T00:06:58;95690.25;;;14.07;100.00
14067;BME280;7108;42.684;23.350;2023-05-20T00:09:23;95682.91;;;14.07;100.00
14067;BME280;7108;42.684;23.350;2023-05-20T00:11:49;95669.56;;;13.92;100.00
14067;BME280;7108;42.684;23.350;2023-05-20T00:14:14;95672.25;;;13.92;100.00
14067;BME280;7108;42.684;23.350;2023-05-20T00:16:40;95681.66;;;14.01;100.00
14067;BME280;7108;42.684;23.350;2023-05-20T00:19:06;95678.44;;;13.92;100.00
14067;BME280;7108;42.684;23.350;2023-05-20T00:21:31;95673.47;;;13.94;100.00
14067;BME280;7108;42.684;23.350;2023-05-20T00:23:58;95680.88;;;14.01;100.00
14067;BME280;7108;42.684;23.350;2023-05-20T00:26:23;95678.13;;;13.97;100.00
14067;BME280;7108;42.684;23.350;2023-05-20T00:28:48;95671.91;;;13.93;100.00
14067;BME280;7108;42.684;23.350;2023-05-20T00:31:14;95670.75;;;13.94;100.00
14067;BME280;7108;42.684;23.350;2023-05-20T00:33:39;95657.47;;;13.86;100.00
14067;BME280;7108;42.684;23.350;2023-05-20T00:36:05;95661.28;;;13.81;100.00
14067;BME280;7108;42.684;23.350;2023-05-20T00:38:31;95664.47;;;13.90;100.00
14067;BME280;7108;42.684;23.350;2023-05-20T00:40:56;95655.41;;;13.76;100.00
14067;BME280;7108;42.684;23.350;2023-05-20T00:43:21;95649.94;;;13.73;100.00
14067;BME280;7108;42.684;23.350;2023-05-20T00:45:50;95658.50;;;13.78;100.00
14067;BME280;7108;42.684;23.350;2023-05-20T00:48:16;95658.06;;;13.73;100.00
14067;BME280;7108;42.684;23.350;2023-05-20T00:50:41;95659.22;;;13.72;100.00
14067;BME280;7108;42.684;23.350;2023-05-20T00:53:07;95650.97;;;13.65;100.00
14067;BME280;7108;42.684;23.350;2023-05-20T00:55:33;95654.94;;;13.71;100.00
14067;BME280;7108;42.684;23.350;2023-05-20T00:58:00;95647.03;;;13.59;100.00
14067;BME280;7108;42.684;23.350;2023-05-20T01:00:25;95649.47;;;13.67;100.00
14067;BME280;7108;42.684;23.350;2023-05-20T01:02:50;95646.72;;;13.64;100.00
14067;BME280;7108;42.684;23.350;2023-05-20T01:05:16;95628.00;;;13.52;100.00
14067;BME280;7108;42.684;23.350;2023-05-20T01:07:41;95647.06;;;13.62;100.00
14067;BME280;7108;42.684;23.350;2023-05-20T01:10:07;95640.41;;;13.56;100.00
14067;BME280;7108;42.684;23.350;2023-05-20T01:12:38;95661.41;;;13.63;100.00
14067;BME280;7108;42.684;23.350;2023-05-20T01:15:07;95652.81;;;13.57;100.00
14067;BME280;7108;42.684;23.350;2023-05-20T01:17:37;95653.50;;;13.51;100.00
14067;BME280;7108;42.684;23.350;2023-05-20T01:20:04;95643.72;;;13.43;100.00
14067;BME280;7108;42.684;23.350;2023-05-20T01:22:36;95654.94;;;13.45;100.00
14067;BME280;7108;42.684;23.350;2023-05-20T01:25:01;95654.56;;;13.46;100.00
14067;BME280;7108;42.684;23.350;2023-05-20T01:27:27;95653.06;;;13.49;100.00
14067;BME280;7108;42.684;23.350;2023-05-20T01:29:54;95646.38;;;13.39;100.00
14067;BME280;7108;42.684;23.350;2023-05-20T01:32:23;95661.56;;;13.47;100.00
14067;BME280;7108;42.684;23.350;2023-05-20T01:34:51;95651.41;;;13.41;100.00
14067;BME280;7108;42.684;23.350;2023-05-20T01:37:21;95661.56;;;13.47;100.00
14067;BME280;7108;42.684;23.350;2023-05-20T01:39:48;95626.38;;;13.21;100.00
14067;BME280;7108;42.684;23.350;2023-05-20T01:42:15;95655.31;;;13.43;100.00
14067;BME280;7108;42.684;23.350;2023-05-20T01:44:42;95648.28;;;13.39;100.00
14067;BME280;7108;42.684;23.350;2023-05-20T01:47:08;95656.78;;;13.37;100.00
14067;BME280;7108;42.684;23.350;2023-05-20T01:49:33;95641.09;;;13.24;100.00
14067;BME280;7108;42.684;23.350;2023-05-20T01:51:58;95642.59;;;13.21;100.00
14067;BME280;7108;42.684;23.350;2023-05-20T01:54:24;95643.81;;;13.24;100.00
14067;BME280;7108;42.684;23.350;2023-05-20T01:56:50;95636.31;;;13.14;100.00
14067;BME280;7108;42.684;23.350;2023-05-20T01:59:15;95647.66;;;13.23;100.00
14067;BME280;7108;42.684;23.350;2023-05-20T02:01:41;95631.66;;;13.14;100.00
14067;BME280;7108;42.684;23.350;2023-05-20T02:04:06;95648.03;;;13.21;100.00
14067;BME280;7108;42.684;23.350;2023-05-20T02:06:32;95633.97;;;13.12;100.00
14067;BME280;7108;42.684;23.350;2023-05-20T02:08:57;95628.88;;;13.08;100.00
14067;BME280;7108;42.684;23.350;2023-05-20T02:11:23;95630.06;;;13.10;100.00
14067;BME280;7108;42.684;23.350;2023-05-20T02:13:49;95644.00;;;13.12;100.00
14067;BME280;7108;42.684;23.350;2023-05-20T02:16:15;95636.25;;;13.10;100.00
14067;BME280;7108;42.684;23.350;2023-05-20T02:18:40;95643.59;;;13.10;100.00
14067;BME280;7108;42.684;23.350;2023-05-20T02:21:06;95618.19;;;12.92;100.00
14067;BME280;7108;42.684;23.350;2023-05-20T02:23:32;95627.59;;;13.02;100.00
14067;BME280;7108;42.684;23.350;2023-05-20T02:25:57;95638.91;;;13.07;100.00
14067;BME280;7108;42.684;23.350;2023-05-20T02:28:23;95626.88;;;13.05;100.00
14067;BME280;7108;42.684;23.350;2023-05-20T02:30:48;95628.03;;;13.04;100.00
14067;BME280;7108;42.684;23.350;2023-05-20T02:33:17;95621.00;;;12.99;100.00
14067;BME280;7108;42.684;23.350;2023-05-20T02:35:43;95620.63;;;13.01;100.00
14067;BME280;7108;42.684;23.350;2023-05-20T02:38:09;95626.09;;;13.04;100.00
14067;BME280;7108;42.684;23.350;2023-05-20T02:40:35;95630.00;;;13.07;100.00
14067;BME280;7108;42.684;23.350;2023-05-20T02:43:00;95629.56;;;13.05;100.00
14067;BME280;7108;42.684;23.350;2023-05-20T02:45:26;95620.16;;;12.95;100.00
14067;BME280;7108;42.684;23.350;2023-05-20T02:47:51;95634.06;;;12.94;100.00
14067;BME280;7108;42.684;23.350;2023-05-20T02:50:17;95635.25;;;12.96;100.00
14067;BME280;7108;42.684;23.350;2023-05-20T02:52:42;95638.00;;;13.00;100.00
14067;BME280;7108;42.684;23.350;2023-05-20T02:55:09;95623.41;;;12.82;100.00
14067;BME280;7108;42.684;23.350;2023-05-20T02:57:35;95637.53;;;12.94;100.00
14067;BME280;7108;42.684;23.350;2023-05-20T03:00:04;95633.13;;;12.86;100.00
14067;BME280;7108;42.684;23.350;2023-05-20T03:02:31;95639.75;;;12.89;100.00
14067;BME280;7108;42.684;23.350;2023-05-20T03:04:56;95642.06;;;12.87;100.00
14067;BME280;7108;42.684;23.350;2023-05-20T03:07:22;95645.16;;;12.89;100.00
14067;BME280;7108;42.684;23.350;2023-05-20T03:09:48;95639.41;;;12.90;100.00
14067;BME280;7108;42.684;23.350;2023-05-20T03:12:13;95640.94;;;12.91;100.00
14067;BME280;7108;42.684;23.350;2023-05-20T03:14:39;95656.84;;;12.93;100.00
14067;BME280;7108;42.684;23.350;2023-05-20T03:17:04;95653.63;;;12.87;100.00
14067;BME280;7108;42.684;23.350;2023-05-20T03:19:30;95640.31;;;12.79;100.00
14067;BME280;7108;42.684;23.350;2023-05-20T03:21:55;95657.03;;;12.84;100.00
14067;BME280;7108;42.684;23.350;2023-05-20T03:24:22;95664.03;;;12.85;100.00
14067;BME280;7108;42.684;23.350;2023-05-20T03:26:47;95662.47;;;12.84;100.00
14067;BME280;7108;42.684;23.350;2023-05-20T03:29:13;95646.34;;;12.69;100.00
14067;BME280;7108;42.684;23.350;2023-05-20T03:31:38;95647.13;;;12.69;100.00
14067;BME280;7108;42.684;23.350;2023-05-20T03:34:04;95645.34;;;12.77;100.00
14067;BME280;7108;42.684;23.350;2023-05-20T03:36:29;95650.91;;;12.65;100.00
14067;BME280;7108;42.684;23.350;2023-05-20T03:38:55;95659.91;;;12.72;100.00
14067;BME280;7108;42.684;23.350;2023-05-20T03:41:20;95661.91;;;12.75;100.00
14067;BME280;7108;42.684;23.350;2023-05-20T03:43:46;95663.13;;;12.78;100.00
14067;BME280;7108;42.684;23.350;2023-05-20T03:46:11;95656.91;;;12.77;100.00
14067;BME280;7108;42.684;23.350;2023-05-20T03:48:37;95667.16;;;12.87;100.00
14067;BME280;7108;42.684;23.350;2023-05-20T03:51:02;95671.50;;;12.92;100.00
14067;BME280;7108;42.684;23.350;2023-05-20T03:53:28;95676.53;;;12.93;100.00
14067;BME280;7108;42.684;23.350;2023-05-20T03:55:53;95676.19;;;12.95;100.00
14067;BME280;7108;42.684;23.350;2023-05-20T03:58:19;95671.25;;;13.00;100.00
14067;BME280;7108;42.684;23.350;2023-05-20T04:00:47;95682.53;;;13.06;100.00
14067;BME280;7108;42.684;23.350;2023-05-20T04:03:13;95681.72;;;13.02;100.00
14067;BME280;7108;42.684;23.350;2023-05-20T04:05:39;95686.94;;;13.13;100.00
14067;BME280;7108;42.684;23.350;2023-05-20T04:08:05;95679.97;;;13.12;100.00
14067;BME280;7108;42.684;23.350;2023-05-20T04:10:31;95690.94;;;13.23;100.00
14067;BME280;7108;42.684;23.350;2023-05-20T04:12:57;95694.84;;;13.25;100.00
14067;BME280;7108;42.684;23.350;2023-05-20T04:15:22;95691.44;;;13.28;100.00
14067;BME280;7108;42.684;23.350;2023-05-20T04:17:49;95693.41;;;13.31;100.00
14067;BME280;7108;42.684;23.350;2023-05-20T04:20:17;95681.91;;;13.38;100.00
14067;BME280;7108;42.684;23.350;2023-05-20T04:22:43;95656.19;;;13.25;100.00
14067;BME280;7108;42.684;23.350;2023-05-20T04:25:09;95687.50;;;13.48;100.00
14067;BME280;7108;42.684;23.350;2023-05-20T04:27:35;95679.38;;;13.48;100.00
14067;BME280;7108;42.684;23.350;2023-05-20T04:30:02;95684.16;;;13.58;100.00
14067;BME280;7108;42.684;23.350;2023-05-20T04:32:29;95687.34;;;13.64;100.00
14067;BME280;7108;42.684;23.350;2023-05-20T04:34:54;95689.38;;;13.70;100.00
14067;BME280;7108;42.684;23.350;2023-05-20T04:37:20;95695.22;;;13.75;100.00
14067;BME280;7108;42.684;23.350;2023-05-20T04:39:47;95684.47;;;13.79;100.00
14067;BME280;7108;42.684;23.350;2023-05-20T04:42:14;95700.50;;;13.91;100.00
14067;BME280;7108;42.684;23.350;2023-05-20T04:44:40;95686.94;;;13.91;100.00
14067;BME280;7108;42.684;23.350;2023-05-20T04:47:05;95708.03;;;14.04;100.00
14067;BME280;7108;42.684;23.350;2023-05-20T04:49:33;95707.25;;;14.04;100.00
14067;BME280;7108;42.684;23.350;2023-05-20T04:51:58;95708.13;;;14.11;100.00
14067;BME280;7108;42.684;23.350;2023-05-20T04:54:24;95704.75;;;14.18;100.00
14067;BME280;7108;42.684;23.350;2023-05-20T04:56:50;95704.38;;;14.19;100.00
14067;BME280;7108;42.684;23.350;2023-05-20T04:59:16;95699.72;;;14.20;100.00
14067;BME280;7108;42.684;23.350;2023-05-20T05:01:41;95686.59;;;14.22;100.00
14067;BME280;7108;42.684;23.350;2023-05-20T05:04:07;95694.13;;;14.35;100.00
14067;BME280;7108;42.684;23.350;2023-05-20T05:06:32;95675.81;;;14.29;100.00
14067;BME280;7108;42.684;23.350;2023-05-20T05:08:58;95694.19;;;14.42;100.00
14067;BME280;7108;42.684;23.350;2023-05-20T05:11:23;95684.53;;;14.44;100.00
14067;BME280;7108;42.684;23.350;2023-05-20T05:13:49;95700.19;;;14.58;100.00
14067;BME280;7108;42.684;23.350;2023-05-20T05:16:14;95687.75;;;14.53;100.00
14067;BME280;7108;42.684;23.350;2023-05-20T05:18:39;95696.22;;;14.48;100.00
14067;BME280;7108;42.684;23.350;2023-05-20T05:21:05;95693.22;;;14.57;100.00
14067;BME280;7108;42.684;23.350;2023-05-20T05:23:31;95671.41;;;14.46;100.00
14067;BME280;7108;42.684;23.350;2023-05-20T05:25:57;95683.56;;;14.59;100.00
14067;BME280;7108;42.684;23.350;2023-05-20T05:28:23;95675.72;;;14.51;100.00
14067;BME280;7108;42.684;23.350;2023-05-20T05:30:48;95669.97;;;14.56;100.00
14067;BME280;7108;42.684;23.350;2023-05-20T05:33:14;95677.38;;;14.62;100.00
14067;BME280;7108;42.684;23.350;2023-05-20T05:35:41;95671.72;;;14.74;100.00
14067;BME280;7108;42.684;23.350;2023-05-20T05:38:07;95656.19;;;14.75;100.00
14067;BME280;7108;42.684;23.350;2023-05-20T05:40:32;95672.69;;;14.96;100.00
14067;BME280;7108;42.684;23.350;2023-05-20T05:42:58;95661.88;;;14.99;100.00
14067;BME280;7108;42.684;23.350;2023-05-20T05:45:23;95668.81;;;14.97;100.00
14067;BME280;7108;42.684;23.350;2023-05-20T05:47:49;95674.63;;;14.99;100.00
14067;BME280;7108;42.684;23.350;2023-05-20T05:50:14;95659.03;;;14.89;100.00
14067;BME280;7108;42.684;23.350;2023-05-20T05:52:40;95682.53;;;15.14;100.00
14067;BME280;7108;42.684;23.350;2023-05-20T05:55:06;95668.31;;;15.24;100.00
14067;BME280;7108;42.684;23.350;2023-05-20T05:57:32;95665.31;;;15.36;100.00
14067;BME280;7108;42.684;23.350;2023-05-20T05:59:57;95656.75;;;15.34;100.00
14067;BME280;7108;42.684;23.350;2023-05-20T06:02:23;95654.16;;;15.48;100.00
14067;BME280;7108;42.684;23.350;2023-05-20T06:04:49;95644.47;;;15.50;100.00
14067;BME280;7108;42.684;23.350;2023-05-20T06:07:14;95659.69;;;15.69;100.00
14067;BME280;7108;42.684;23.350;2023-05-20T06:09:40;95646.59;;;15.81;100.00
14067;BME280;7108;42.684;23.350;2023-05-20T06:12:05;95650.50;;;15.90;100.00
14067;BME280;7108;42.684;23.350;2023-05-20T06:14:31;95632.66;;;15.93;100.00
14067;BME280;7108;42.684;23.350;2023-05-20T06:16:57;95640.09;;;16.03;100.00
14067;BME280;7108;42.684;23.350;2023-05-20T06:19:22;95631.16;;;16.02;100.00
14067;BME280;7108;42.684;23.350;2023-05-20T06:21:48;95630.84;;;16.14;100.00
14067;BME280;7108;42.684;23.350;2023-05-20T06:24:13;95640.94;;;16.21;100.00
14067;BME280;7108;42.684;23.350;2023-05-20T06:26:39;95637.50;;;16.27;100.00
14067;BME280;7108;42.684;23.350;2023-05-20T06:29:04;95631.72;;;16.36;100.00
14067;BME280;7108;42.684;23.350;2023-05-20T06:31:30;95636.03;;;16.50;100.00
14067;BME280;7108;42.684;23.350;2023-05-20T06:33:55;95627.09;;;16.57;100.00
14067;BME280;7108;42.684;23.350;2023-05-20T06:36:20;95628.28;;;16.66;100.00
14067;BME280;7108;42.684;23.350;2023-05-20T06:38:46;95625.59;;;16.70;100.00
14067;BME280;7108;42.684;23.350;2023-05-20T06:41:12;95615.09;;;16.75;100.00
14067;BME280;7108;42.684;23.350;2023-05-20T06:43:37;95612.38;;;16.72;100.00
14067;BME280;7108;42.684;23.350;2023-05-20T06:46:04;95598.38;;;16.73;100.00
14067;BME280;7108;42.684;23.350;2023-05-20T06:48:30;95599.94;;;16.88;100.00
14067;BME280;7108;42.684;23.350;2023-05-20T06:50:55;95608.91;;;16.99;100.00
14067;BME280;7108;42.684;23.350;2023-05-20T06:53:21;95608.50;;;17.04;100.00
14067;BME280;7108;42.684;23.350;2023-05-20T06:55:46;95592.56;;;16.96;100.00
14067;BME280;7108;42.684;23.350;2023-05-20T06:58:12;95605.00;;;17.17;100.00
14067;BME280;7108;42.684;23.350;2023-05-20T07:00:37;95615.53;;;17.29;100.00
14067;BME280;7108;42.684;23.350;2023-05-20T07:03:03;95614.75;;;17.36;100.00
14067;BME280;7108;42.684;23.350;2023-05-20T07:05:29;95595.28;;;17.30;100.00
14067;BME280;7108;42.684;23.350;2023-05-20T07:07:55;95617.47;;;17.46;100.00
14067;BME280;7108;42.684;23.350;2023-05-20T07:10:21;95604.59;;;17.50;100.00
14067;BME280;7108;42.684;23.350;2023-05-20T07:12:46;95605.00;;;17.56;100.00
14067;BME280;7108;42.684;23.350;2023-05-20T07:15:12;95595.25;;;17.65;100.00
14067;BME280;7108;42.684;23.350;2023-05-20T07:17:37;95599.09;;;17.74;100.00
14067;BME280;7108;42.684;23.350;2023-05-20T07:20:03;95601.06;;;17.81;100.00
14067;BME280;7108;42.684;23.350;2023-05-20T07:22:28;95604.91;;;17.87;100.00
14067;BME280;7108;42.684;23.350;2023-05-20T07:24:54;95577.28;;;17.78;100.00
14067;BME280;7108;42.684;23.350;2023-05-20T07:27:20;95599.44;;;18.01;100.00
14067;BME280;7108;42.684;23.350;2023-05-20T07:29:45;95585.81;;;17.97;100.00
14067;BME280;7108;42.684;23.350;2023-05-20T07:32:10;95576.81;;;18.00;100.00
14067;BME280;7108;42.684;23.350;2023-05-20T07:34:36;95586.91;;;18.10;100.00
14067;BME280;7108;42.684;23.350;2023-05-20T07:37:02;95573.31;;;18.07;100.00
14067;BME280;7108;42.684;23.350;2023-05-20T07:39:28;95585.72;;;18.25;100.00
14067;BME280;7108;42.684;23.350;2023-05-20T07:41:53;95595.00;;;18.35;100.00
14067;BME280;7108;42.684;23.350;2023-05-20T07:44:19;95592.66;;;18.40;100.00
14067;BME280;7108;42.684;23.350;2023-05-20T07:46:46;95597.69;;;18.48;100.00
14067;BME280;7108;42.684;23.350;2023-05-20T07:49:12;95591.41;;;18.51;100.00
14067;BME280;7108;42.684;23.350;2023-05-20T07:51:37;95576.66;;;18.42;100.00
14067;BME280;7108;42.684;23.350;2023-05-20T07:54:03;95594.06;;;18.65;100.00
14067;BME280;7108;42.684;23.350;2023-05-20T07:56:28;95588.19;;;18.67;100.00
14067;BME280;7108;42.684;23.350;2023-05-20T07:58:58;95580.00;;;18.67;100.00
14067;BME280;7108;42.684;23.350;2023-05-20T08:01:24;95592.06;;;18.73;100.00
14067;BME280;7108;42.684;23.350;2023-05-20T08:03:50;95578.03;;;18.71;100.00
14067;BME280;7108;42.684;23.350;2023-05-20T08:06:15;95585.38;;;18.84;100.00
14067;BME280;7108;42.684;23.350;2023-05-20T08:08:41;95591.13;;;18.93;100.00
14067;BME280;7108;42.684;23.350;2023-05-20T08:11:08;95582.16;;;18.93;100.00
14067;BME280;7108;42.684;23.350;2023-05-20T08:13:33;95586.81;;;18.99;100.00
14067;BME280;7108;42.684;23.350;2023-05-20T08:15:59;95594.97;;;19.03;100.00
14067;BME280;7108;42.684;23.350;2023-05-20T08:18:25;95584.81;;;19.03;100.00
14067;BME280;7108;42.684;23.350;2023-05-20T08:20:51;95569.59;;;19.02;100.00
14067;BME280;7108;42.684;23.350;2023-05-20T08:23:17;95574.66;;;19.10;100.00
14067;BME280;7108;42.684;23.350;2023-05-20T08:25:42;95579.28;;;19.13;100.00
14067;BME280;7108;42.684;23.350;2023-05-20T08:28:11;95571.53;;;19.08;100.00
14067;BME280;7108;42.684;23.350;2023-05-20T08:30:36;95570.00;;;19.08;100.00
14067;BME280;7108;42.684;23.350;2023-05-20T08:33:02;95570.00;;;19.04;100.00
14067;BME280;7108;42.684;23.350;2023-05-20T08:35:27;95572.69;;;19.11;100.00
14067;BME280;7108;42.684;23.350;2023-05-20T08:37:53;95571.84;;;19.17;100.00
14067;BME280;7108;42.684;23.350;2023-05-20T08:40:19;95570.56;;;19.29;100.00
14067;BME280;7108;42.684;23.350;2023-05-20T08:42:47;95572.50;;;19.32;100.00
14067;BME280;7108;42.684;23.350;2023-05-20T08:45:16;95551.84;;;19.31;100.00
14067;BME280;7108;42.684;23.350;2023-05-20T08:47:42;95567.69;;;19.43;100.00
14067;BME280;7108;42.684;23.350;2023-05-20T08:50:09;95571.22;;;19.43;100.00
14067;BME280;7108;42.684;23.350;2023-05-20T08:52:37;95555.16;;;19.49;100.00
14067;BME280;7108;42.684;23.350;2023-05-20T08:55:04;95571.09;;;19.57;100.00
14067;BME280;7108;42.684;23.350;2023-05-20T08:57:32;95577.72;;;19.56;100.00
14067;BME280;7108;42.684;23.350;2023-05-20T08:59:58;95562.50;;;19.55;100.00
14067;BME280;7108;42.684;23.350;2023-05-20T09:02:24;95567.91;;;19.62;100.00
14067;BME280;7108;42.684;23.350;2023-05-20T09:04:50;95549.59;;;19.59;100.00
14067;BME280;7108;42.684;23.350;2023-05-20T09:07:26;95560.13;;;19.61;100.00
14067;BME280;7108;42.684;23.350;2023-05-20T09:09:52;95563.59;;;19.65;100.00
14067;BME280;7108;42.684;23.350;2023-05-20T09:12:19;95547.63;;;19.60;100.00
14067;BME280;7108;42.684;23.350;2023-05-20T09:14:45;95555.78;;;19.63;100.00
14067;BME280;7108;42.684;23.350;2023-05-20T09:17:11;95550.31;;;19.63;100.00
14067;BME280;7108;42.684;23.350;2023-05-20T09:19:37;95530.03;;;19.61;100.00
14067;BME280;7108;42.684;23.350;2023-05-20T09:22:06;95546.63;;;19.80;100.00
14067;BME280;7108;42.684;23.350;2023-05-20T09:24:31;95548.13;;;19.84;100.00
14067;BME280;7108;42.684;23.350;2023-05-20T09:26:57;95546.91;;;19.92;100.00
14067;BME280;7108;42.684;23.350;2023-05-20T09:29:23;95540.59;;;19.95;100.00
14067;BME280;7108;42.684;23.350;2023-05-20T09:31:49;95533.66;;;19.87;100.00
14067;BME280;7108;42.684;23.350;2023-05-20T09:34:15;95534.72;;;19.97;100.00
14067;BME280;7108;42.684;23.350;2023-05-20T09:36:42;95527.97;;;20.05;100.00
14067;BME280;7108;42.684;23.350;2023-05-20T09:39:15;95530.94;;;20.17;100.00
14067;BME280;7108;42.684;23.350;2023-05-20T09:42:16;95529.09;;;20.11;100.00
14067;BME280;7108;42.684;23.350;2023-05-20T09:44:39;95514.25;;;20.08;100.00
14067;BME280;7108;42.684;23.350;2023-05-20T09:47:05;95514.94;;;20.16;100.00
14067;BME280;7108;42.684;23.350;2023-05-20T09:49:32;95527.00;;;20.22;100.00
14067;BME280;7108;42.684;23.350;2023-05-20T09:52:01;95513.84;;;20.10;100.00
14067;BME280;7108;42.684;23.350;2023-05-20T09:54:28;95517.66;;;20.19;100.00
14067;BME280;7108;42.684;23.350;2023-05-20T09:56:56;95513.59;;;20.27;100.00
14067;BME280;7108;42.684;23.350;2023-05-20T09:59:22;95508.81;;;20.35;100.00
14067;BME280;7108;42.684;23.350;2023-05-20T10:01:48;95508.66;;;20.45;100.00
14067;BME280;7108;42.684;23.350;2023-05-20T10:04:15;95504.06;;;20.65;100.00
14067;BME280;7108;42.684;23.350;2023-05-20T10:09:58;95479.28;;;20.72;96.93
14067;BME280;7108;42.684;23.350;2023-05-20T10:15:19;95498.81;;;20.77;93.36
14067;BME280;7108;42.684;23.350;2023-05-20T10:18:24;95485.72;;;20.88;91.33
14067;BME280;7108;42.684;23.350;2023-05-20T10:20:52;95465.28;;;20.93;94.23
14067;BME280;7108;42.684;23.350;2023-05-20T10:23:27;95476.19;;;21.19;93.35
14067;BME280;7108;42.684;23.350;2023-05-20T10:25:54;95475.47;;;21.34;89.68
14067;BME280;7108;42.684;23.350;2023-05-20T10:28:32;95475.00;;;21.39;82.99
14067;BME280;7108;42.684;23.350;2023-05-20T10:30:59;95459.78;;;21.38;83.58
14067;BME280;7108;42.684;23.350;2023-05-20T10:33:28;95478.94;;;21.61;88.66
14067;BME280;7108;42.684;23.350;2023-05-20T10:35:57;95458.75;;;21.71;81.58
14067;BME280;7108;42.684;23.350;2023-05-20T10:38:23;95461.13;;;21.88;76.19
14067;BME280;7108;42.684;23.350;2023-05-20T10:40:48;95456.41;;;21.89;71.05
14067;BME280;7108;42.684;23.350;2023-05-20T10:43:25;95456.63;;;21.98;70.87
14067;BME280;7108;42.684;23.350;2023-05-20T10:45:54;95446.81;;;21.97;77.95
14067;BME280;7108;42.684;23.350;2023-05-20T10:50:46;95439.13;;;22.08;71.70
14067;BME280;7108;42.684;23.350;2023-05-20T10:53:13;95445.59;;;22.17;68.50
14067;BME280;7108;42.684;23.350;2023-05-20T10:55:39;95439.91;;;22.28;72.99
14067;BME280;7108;42.684;23.350;2023-05-20T10:58:05;95444.03;;;22.36;66.66
14067;BME280;7108;42.684;23.350;2023-05-20T11:00:35;95433.63;;;22.27;63.26
14067;BME280;7108;42.684;23.350;2023-05-20T11:03:04;95423.13;;;22.22;64.90
14067;BME280;7108;42.684;23.350;2023-05-20T11:05:30;95422.41;;;22.38;88.00
14067;BME280;7108;42.684;23.350;2023-05-20T11:08:03;95416.72;;;22.29;79.97
14067;BME280;7108;42.684;23.350;2023-05-20T11:10:29;95432.09;;;22.07;73.19
14067;BME280;7108;42.684;23.350;2023-05-20T11:12:56;95439.94;;;21.89;73.12
14067;BME280;7108;42.684;23.350;2023-05-20T11:15:22;95433.41;;;21.64;71.22
14067;BME280;7108;42.684;23.350;2023-05-20T11:17:56;95421.53;;;21.51;76.25
14067;BME280;7108;42.684;23.350;2023-05-20T11:20:22;95423.72;;;21.59;82.96
14067;BME280;7108;42.684;23.350;2023-05-20T11:22:52;95412.03;;;21.55;83.46
14067;BME280;7108;42.684;23.350;2023-05-20T11:25:19;95416.47;;;21.69;80.54
14067;BME280;7108;42.684;23.350;2023-05-20T11:27:45;95413.03;;;21.65;80.73
14067;BME280;7108;42.684;23.350;2023-05-20T11:30:12;95400.69;;;21.57;79.04
14067;BME280;7108;42.684;23.350;2023-05-20T11:32:42;95400.31;;;21.74;77.56
14067;BME280;7108;42.684;23.350;2023-05-20T11:35:20;95405.28;;;21.60;79.38
14067;BME280;7108;42.684;23.350;2023-05-20T11:37:53;95385.13;;;21.31;84.32
14067;BME280;7108;42.684;23.350;2023-05-20T11:40:23;95386.78;;;21.25;83.68
14067;BME280;7108;42.684;23.350;2023-05-20T11:42:52;95395.84;;;21.22;86.58
14067;BME280;7108;42.684;23.350;2023-05-20T11:45:17;95393.59;;;21.17;86.96
14067;BME280;7108;42.684;23.350;2023-05-20T11:47:43;95384.03;;;21.06;83.56
14067;BME280;7108;42.684;23.350;2023-05-20T11:50:08;95402.09;;;21.03;85.01
14067;BME280;7108;42.684;23.350;2023-05-20T11:52:34;95392.03;;;20.97;88.00
14067;BME280;7108;42.684;23.350;2023-05-20T11:55:00;95391.19;;;21.00;85.87
14067;BME280;7108;42.684;23.350;2023-05-20T11:57:25;95388.91;;;21.17;79.37
14067;BME280;7108;42.684;23.350;2023-05-20T11:59:51;95384.13;;;21.41;88.30
14067;BME280;7108;42.684;23.350;2023-05-20T12:02:16;95388.22;;;21.52;77.62
14067;BME280;7108;42.684;23.350;2023-05-20T12:04:41;95388.09;;;21.59;80.26
14067;BME280;7108;42.684;23.350;2023-05-20T12:07:07;95371.47;;;21.66;82.49
14067;BME280;7108;42.684;23.350;2023-05-20T12:09:34;95374.50;;;21.72;79.35
14067;BME280;7108;42.684;23.350;2023-05-20T12:11:59;95370.97;;;21.71;81.21
14067;BME280;7108;42.684;23.350;2023-05-20T12:14:25;95368.06;;;21.78;84.33
14067;BME280;7108;42.684;23.350;2023-05-20T12:16:51;95376.13;;;21.69;86.52
14067;BME280;7108;42.684;23.350;2023-05-20T12:19:17;95371.44;;;21.47;86.36
14067;BME280;7108;42.684;23.350;2023-05-20T12:21:43;95368.91;;;21.17;82.16
14067;BME280;7108;42.684;23.350;2023-05-20T12:24:11;95379.31;;;21.06;82.94
14067;BME280;7108;42.684;23.350;2023-05-20T12:26:37;95376.84;;;20.92;85.15
14067;BME280;7108;42.684;23.350;2023-05-20T12:29:02;95396.06;;;20.89;86.84
14067;BME280;7108;42.684;23.350;2023-05-20T12:31:28;95397.03;;;20.79;83.56
14067;BME280;7108;42.684;23.350;2023-05-20T12:33:53;95395.00;;;20.60;84.05
14067;BME280;7108;42.684;23.350;2023-05-20T12:36:18;95408.22;;;20.65;89.83
14067;BME280;7108;42.684;23.350;2023-05-20T12:38:44;95399.88;;;20.49;89.33
14067;BME280;7108;42.684;23.350;2023-05-20T12:41:09;95411.13;;;20.32;78.96
14067;BME280;7108;42.684;23.350;2023-05-20T12:43:41;95426.19;;;20.17;76.46
14067;BME280;7108;42.684;23.350;2023-05-20T12:46:07;95427.47;;;20.09;75.23
14067;BME280;7108;42.684;23.350;2023-05-20T12:48:32;95431.50;;;20.01;80.93
14067;BME280;7108;42.684;23.350;2023-05-20T12:50:57;95424.97;;;19.91;81.16
14067;BME280;7108;42.684;23.350;2023-05-20T12:53:26;95410.56;;;19.87;88.09
14067;BME280;7108;42.684;23.350;2023-05-20T12:55:51;95420.38;;;19.85;82.38
14067;BME280;7108;42.684;23.350;2023-05-20T12:58:17;95407.19;;;19.76;86.36